Nearby METAR Reports

 

KBED - Bedford, Massachusetts, USA
Distance from station: ENE 12mi, 20km
Updated: Tue, 28-Jan-2020 7:51am EST
Mostly cloudy
Mostly cloudy
 Wind from W
Wind: W 5 mph , 7 km/h
Temperature: 37°F , 3°C
Wind Chill: 33°F , 1°C
Dew Point: 27°F , -3°C
Humidity: 65%
Barometer: 29.71 inHg , 1006.1 hPa
Clouds: Mostly cloudy
Visibility: 10 miles , 16 km
Cloud details: Mostly cloudy 4700 ft
Mostly cloudy 6500 ft
2020/01/28 12:51 KBED 281251Z 28004KT 10SM BKN047 BKN065 03/M03 A2971 RMK AO2 SLP076 T00281033
KFIT - Fitchburg, Massachusetts, USA
Distance from station: NW 15mi, 24km
Updated: Tue, 28-Jan-2020 7:52am EST
Overcast
Overcast
 Wind from NW
Wind: NW 7 mph , 11 km/h
Temperature: 36°F , 2°C
Wind Chill: 30°F , -1°C
Dew Point: 27°F , -3°C
Humidity: 70%
Barometer: 29.72 inHg , 1006.4 hPa
Clouds: Overcast
Visibility: 10 miles , 16 km
Cloud details: Overcast 5000 ft
2020/01/28 12:52 KFIT 281252Z AUTO 31006KT 10SM OVC050 02/M03 A2972 RMK AO2 SLP069 T00171033
 
KORH - Worcester, Massachusetts, USA
Distance from station: WSW 20mi, 32km
Updated: Tue, 28-Jan-2020 7:54am EST
Mostly cloudy
Mostly cloudy
 Wind from WNW
Wind: WNW 10 mph , 17 km/h
Temperature: 32°F , 0°C
Wind Chill: 24°F , -4°C
Dew Point: 25°F , -4°C
Humidity: 75%
Barometer: 29.69 inHg , 1005.4 hPa
Clouds: Mostly cloudy
Visibility: 10 miles , 16 km
Cloud details: Mostly cloudy 3600 ft
Mostly cloudy 5500 ft
2020/01/28 12:54 KORH 281254Z 30009KT 10SM BKN036 BKN055 00/M04 A2969 RMK AO2 SLP066 T00001044
KOWD - Norwood, Massachusetts, USA
Distance from station: SE 24mi, 39km
Updated: Tue, 28-Jan-2020 7:53am EST
Overcast
Overcast
 Wind from NW
Wind: NW 5 mph , 7 km/h
Temperature: 39°F , 4°C
Wind Chill: 35°F , 2°C
Dew Point: 27°F , -3°C
Humidity: 61%
Barometer: 29.72 inHg , 1006.4 hPa
Clouds: Overcast
Visibility: 10 miles , 16 km
Cloud details: Mostly cloudy 5000 ft
Overcast 7000 ft
2020/01/28 12:53 KOWD 281253Z 31004KT 10SM BKN050 OVC070 04/M03 A2972 RMK AO2 SLP064 T00391033
 
KMQE - East Milton, Massachusetts, USA
Distance from station: ESE 25mi, 40km
Updated: Tue, 28-Jan-2020 7:51am EST

 Wind from NW
Wind: NW 9 mph , 15 km/h
Temperature: 34°F , 1°C
Wind Chill: 27°F , -3°C
Dew Point: 25°F , -4°C
Humidity: 70%
Barometer: 29.68 inHg , 1005.1 hPa
2020/01/28 12:51 KMQE 281251Z AUTO 31008KT 01/M04 A2968 RMK AO1 SLP066 T00061039
KASH - Nashua/Boire Fld, New Hampshire, USA
Distance from station: N 26mi, 42km
Updated: Tue, 28-Jan-2020 7:56am EST
Overcast
Overcast
 Wind from NW
Wind: NW 5 mph , 7 km/h
Temperature: 36°F , 2°C
Wind Chill: 32°F , 0°C
Dew Point: 28°F , -2°C
Humidity: 75%
Barometer: 29.73 inHg , 1006.8 hPa
Clouds: Overcast
Visibility: 10 miles , 16 km
Cloud details: Few Clouds 3700 ft
Overcast 5000 ft
2020/01/28 12:56 KASH 281256Z 31004KT 10SM FEW037 OVC050 02/M02 A2973 RMK AO2 SLP073 T00171017
 
KBOS - Boston, Massachusetts, USA
Distance from station: E 26mi, 42km
Updated: Tue, 28-Jan-2020 7:54am EST
Partly cloudy
Partly cloudy
 Wind from NW
Wind: NW 13 mph , 20 km/h
Temperature: 39°F , 4°C
Wind Chill: 31°F , -1°C
Dew Point: 27°F , -3°C
Humidity: 61%
Barometer: 29.72 inHg , 1006.4 hPa
Clouds: Partly cloudy
Visibility: 10 miles , 16 km
Cloud details: Few Clouds 4000 ft
Partly cloudy 6000 ft
2020/01/28 12:54 KBOS 281254Z 31011KT 10SM FEW040 SCT060 04/M03 A2972 RMK AO2 SLP062 T00391033
KLWM - Lawrence, Massachusetts, USA
Distance from station: NE 29mi, 47km
Updated: Tue, 28-Jan-2020 7:54am EST
Overcast
Overcast
 Wind from NW
Wind: NW 8 mph , 13 km/h
Temperature: 36°F , 2°C
Wind Chill: 30°F , -1°C
Dew Point: 27°F , -3°C
Humidity: 70%
Barometer: 29.73 inHg , 1006.8 hPa
Clouds: Overcast
Visibility: 10 miles , 16 km
Cloud details: Mostly cloudy 5500 ft
Overcast 7000 ft
2020/01/28 12:54 KLWM 281254Z 31007KT 10SM BKN055 OVC070 02/M03 A2973 RMK AO2 SLP068 T00221033
 
KBVY - Beverly, Massachusetts, USA
Distance from station: ENE 33mi, 54km
Updated: Tue, 28-Jan-2020 7:53am EST
Mostly cloudy
Mostly cloudy
 Wind from NW
Wind: NW 8 mph , 13 km/h
Temperature: 37°F , 3°C
Wind Chill: 31°F , -1°C
Dew Point: 27°F , -3°C
Humidity: 65%
Barometer: 29.70 inHg , 1005.8 hPa
Clouds: Mostly cloudy
Visibility: 10 miles , 16 km
Cloud details: Mostly cloudy 5500 ft
2020/01/28 12:53 KBVY 281253Z 32007KT 10SM BKN055 03/M03 A2970 RMK AO2 SLP055 T00281033 $
KSFZ - Pawtucket, Rhode Island, USA
Distance from station: S 34mi, 54km
Updated: Tue, 28-Jan-2020 7:56am EST
Overcast
Overcast
 Wind from NW
Wind: NW 7 mph , 11 km/h
Temperature: 34°F , 1°C
Wind Chill: 28°F , -2°C
Dew Point: 27°F , -3°C
Humidity: 75%
Barometer: 29.71 inHg , 1006.1 hPa
Clouds: Overcast
Visibility: 10 miles , 16 km
Cloud details: Few Clouds 5000 ft
Overcast 6500 ft
2020/01/28 12:56 KSFZ 281256Z AUTO 32006KT 10SM FEW050 OVC065 01/M03 A2971 RMK AO2 SLP011 T00111033 FZRANO
 
KAFN - Jaffrey, New Hampshire, USA
Distance from station: NW 36mi, 59km
Updated: Tue, 28-Jan-2020 7:52am EST
Overcast
Overcast
 Wind from calm
Wind: Calm
Temperature: 32°F , 0°C
Dew Point: 23°F , -5°C
Humidity: 69%
Barometer: 29.70 inHg , 1005.8 hPa
Clouds: Overcast
Visibility: 10 miles , 16 km
Cloud details: Few Clouds 4500 ft
Overcast 5500 ft
2020/01/28 12:52 KAFN 281252Z AUTO 00000KT 10SM FEW045 OVC055 00/M05 A2970 RMK AO2 SLP071 T00001050
KMHT - Manchester, New Hampshire, USA
Distance from station: N 37mi, 59km
Updated: Tue, 28-Jan-2020 7:53am EST
Overcast
Overcast
 Wind from NNW
Wind: NNW 8 mph , 13 km/h
Temperature: 36°F , 2°C
Wind Chill: 30°F , -1°C
Dew Point: 27°F , -3°C
Humidity: 70%
Barometer: 29.71 inHg , 1006.1 hPa
Clouds: Overcast
Visibility: 10 miles , 16 km
Cloud details: Overcast 4100 ft
2020/01/28 12:53 KMHT 281253Z 34007KT 10SM OVC041 02/M03 A2971 RMK AO2 SLP076 T00221033
 
KORE - Orange, Massachusetts, USA
Distance from station: WNW 40mi, 65km
Updated: Tue, 28-Jan-2020 7:52am EST
Overcast
Overcast
 Wind from NW
Wind: NW 7 mph , 11 km/h
Temperature: 36°F , 2°C
Wind Chill: 30°F , -1°C
Dew Point: 25°F , -4°C
Humidity: 65%
Barometer: 29.73 inHg , 1006.8 hPa
Clouds: Overcast
Visibility: 10 miles , 16 km
Cloud details: Overcast 3100 ft
2020/01/28 12:52 KORE 281252Z AUTO 32006KT 10SM OVC031 02/M04 A2973 RMK AO2 SLP073 T00171039
KTAN - Taunton, Massachusetts, USA
Distance from station: SE 45mi, 72km
Updated: Tue, 28-Jan-2020 7:52am EST
Overcast
Overcast
 Wind from varies
Wind: varies 5 mph , 7 km/h
Temperature: 36°F , 2°C
Wind Chill: 32°F , 0°C
Dew Point: 27°F , -3°C
Humidity: 70%
Barometer: 29.71 inHg , 1006.1 hPa
Clouds: Overcast
Visibility: 10 miles , 16 km
Cloud details: Overcast 6500 ft
2020/01/28 12:52 KTAN 281252Z AUTO VRB04KT 10SM OVC065 02/M03 A2971 RMK AO2 SLP061 T00221033
 
KPVD - Providence/Green, Rhode Island, USA
Distance from station: S 48mi, 77km
Updated: Tue, 28-Jan-2020 7:51am EST
Mostly cloudy
Mostly cloudy
 Wind from NNW
Wind: NNW 8 mph , 13 km/h
Temperature: 37°F , 3°C
Wind Chill: 31°F , -1°C
Dew Point: 27°F , -3°C
Humidity: 65%
Barometer: 29.73 inHg , 1006.8 hPa
Clouds: Mostly cloudy
Visibility: 10 miles , 16 km
Cloud details: Mostly cloudy 6000 ft
2020/01/28 12:51 KPVD 281251Z 33007KT 10SM BKN060 03/M03 A2973 RMK AO2 SLP066 T00281028
KGHG - Marshfield, Massachusetts, USA
Distance from station: ESE 49mi, 79km
Updated: Tue, 28-Jan-2020 8:15am EST
Mostly cloudy
Mostly cloudy
 Wind from NW
Wind: NW 8 mph , 13 km/h, Gust: 18 mph , 30 km/h
Temperature: 39°F , 4°C
Wind Chill: 33°F , 1°C
Dew Point: 27°F , -3°C
Humidity: 61%
Barometer: 29.71 inHg , 1006.1 hPa
Clouds: Mostly cloudy
Visibility: 10 miles , 16 km
Cloud details: Mostly cloudy 6000 ft
2020/01/28 13:15 KGHG 281315Z AUTO 32007G16KT 290V350 10SM BKN060 04/M03 A2971 RMK AO2
 
KEEN - Keene/Dillant, New Hampshire, USA
Distance from station: NW 50mi, 81km
Updated: Tue, 28-Jan-2020 7:56am EST
Overcast
Overcast
 Wind from NNW
Wind: NNW 5 mph , 7 km/h
Temperature: 34°F , 1°C
Wind Chill: 29°F , -2°C
Dew Point: 25°F , -4°C
Humidity: 70%
Barometer: 29.73 inHg , 1006.8 hPa
Clouds: Overcast
Visibility: 10 miles , 16 km
Cloud details: Overcast 4600 ft
2020/01/28 12:56 KEEN 281256Z AUTO 34004KT 10SM OVC046 01/M04 A2973 RMK AO2 SLP077 T00061039 FZRANO $